メインページ
METAR-TAF:

METAR-TAF

空港 :

Loreto, メキシコ

緯度: 26-01N, 経度: 111-21W, 海抜: 15m

現時点の気象観測

当レポートは11時間4分前の01:44(UTC)に作成
北東の風 8kt
気温 20°C
湿度 60%
気圧 1016 hPa
視程: 16.1km
晴天

METAR: MMLT 230144Z 04008KT 10SM SKC 20/12 A3000 RMK HZY

時間: 05:48 (12:48 UTC)

予報

当レポートは8時間2分前の04:46(UTC)に作成
予報は23日の 06時(UTC)から 24日の 06時(UTC)まで有効
北東の風 8kt
視程: 10km
晴天
23日の 1000時(UTC)から
の風 kt
視程: 10km
晴天
23日の 1800時(UTC)から
北東の風 15kt
視程: 10km
高度8000ftの雲は散在している
高度22000ftの雲は散在している
24日の 03時(UTC)から 24日の 05時(UTC)まで徐々に
の風 4kt

TAF: MMLT 230446Z 2306/2406 04008KT P6SM SKC FM231000 00000KT P6SM SKC FM231800 04015KT P6SM SCT080 SCT220 BECMG 2403/2405 09004KT

4,000以上の空港の気象観測と天気予報(METAR報とTAF報)

利用可能な観測所は地図上に黄色い丸と赤い丸で示す。

丸の上にカーソルを重ねると観測所名を参照できる。

次にクリックすると気象観測と天気予報を参照できる。

マップの切り替え:黒色「×」印の緑ボタンをクリックして拡大、「-」印の緑ボタンをクリックして縮小、緑色の三角印をクリックして隣りの地図に切り替え


METAR-TAF: